createdAt,value
2018-08-19T00:00:10.216Z,19.20
2018-08-19T00:02:40.664Z,19.10
2018-08-19T00:05:19.260Z,19.10
2018-08-19T00:07:49.955Z,19.00
2018-08-19T00:10:42.724Z,19.00
2018-08-19T00:13:14.257Z,19.00
2018-08-19T00:15:44.858Z,19.00
2018-08-19T00:18:15.461Z,19.00
2018-08-19T00:20:45.978Z,18.90
2018-08-19T00:23:16.550Z,18.90
2018-08-19T00:25:47.267Z,18.80
2018-08-19T00:28:19.266Z,18.80
2018-08-19T00:30:50.040Z,18.70
2018-08-19T00:33:20.738Z,18.70
2018-08-19T00:35:51.206Z,18.70
2018-08-19T00:38:21.762Z,18.70
2018-08-19T00:40:52.327Z,18.70
2018-08-19T00:43:22.908Z,18.60
2018-08-19T00:45:54.166Z,18.70
2018-08-19T00:48:24.822Z,18.70
2018-08-19T00:50:56.312Z,18.60
2018-08-19T00:53:26.959Z,18.60
2018-08-19T00:55:57.341Z,18.60
2018-08-19T00:58:28.002Z,18.50
2018-08-19T01:00:58.456Z,18.50
2018-08-19T01:03:29.211Z,18.40
2018-08-19T01:05:59.812Z,18.40
2018-08-19T01:08:30.318Z,18.50
2018-08-19T01:11:00.868Z,18.40
2018-08-19T01:13:31.401Z,18.50
2018-08-19T01:16:01.836Z,18.50
2018-08-19T01:18:32.432Z,18.60
2018-08-19T01:21:12.159Z,18.60
2018-08-19T01:23:42.635Z,18.60
2018-08-19T01:26:13.189Z,18.60
2018-08-19T01:28:44.814Z,18.70
2018-08-19T01:31:16.226Z,18.70
2018-08-19T01:33:46.916Z,18.60
2018-08-19T01:36:17.494Z,18.60
2018-08-19T01:38:48.131Z,18.60
2018-08-19T01:41:18.577Z,18.40
2018-08-19T01:44:19.557Z,18.30
2018-08-19T01:46:51.632Z,18.20
2018-08-19T01:49:22.077Z,18.10
2018-08-19T01:51:52.545Z,18.10
2018-08-19T01:54:23.958Z,18.00
2018-08-19T01:56:58.050Z,17.90
2018-08-19T01:59:34.683Z,17.80
2018-08-19T02:02:06.735Z,17.80
2018-08-19T02:04:44.217Z,17.70
2018-08-19T02:07:17.308Z,17.70
2018-08-19T02:10:06.938Z,17.70
2018-08-19T02:12:38.708Z,17.70
2018-08-19T02:15:10.973Z,17.70
2018-08-19T02:17:48.693Z,17.70
2018-08-19T02:20:19.364Z,17.70
2018-08-19T02:22:54.136Z,17.70
2018-08-19T02:25:24.566Z,17.70
2018-08-19T02:27:55.109Z,17.70
2018-08-19T02:30:25.759Z,17.70
2018-08-19T02:32:56.818Z,17.70
2018-08-19T02:35:27.273Z,17.60
2018-08-19T02:37:57.807Z,17.60
2018-08-19T02:40:34.743Z,17.50
2018-08-19T02:43:05.427Z,17.50
2018-08-19T02:45:36.605Z,17.40
2018-08-19T02:48:07.525Z,17.40
2018-08-19T02:50:38.589Z,17.40
2018-08-19T02:53:09.095Z,17.50
2018-08-19T02:55:39.631Z,17.50
2018-08-19T02:58:15.280Z,17.50
2018-08-19T03:00:45.745Z,17.50
2018-08-19T03:03:16.372Z,17.40
2018-08-19T03:05:56.011Z,17.40
2018-08-19T03:08:26.505Z,17.40
2018-08-19T03:10:57.221Z,17.30
2018-08-19T03:13:27.793Z,17.30
2018-08-19T03:15:58.494Z,17.20
2018-08-19T03:18:28.906Z,17.10
2018-08-19T03:20:59.383Z,17.00
2018-08-19T03:23:30.566Z,17.00
2018-08-19T03:26:01.236Z,17.00
2018-08-19T03:28:32.295Z,17.00
2018-08-19T03:31:03.683Z,17.00
2018-08-19T03:33:34.211Z,17.10
2018-08-19T03:36:04.702Z,17.10
2018-08-19T03:38:35.117Z,17.20
2018-08-19T03:41:05.726Z,17.20
2018-08-19T03:43:37.017Z,17.30
2018-08-19T03:46:12.469Z,17.30
2018-08-19T03:48:43.038Z,17.30
2018-08-19T03:51:15.137Z,17.30
2018-08-19T03:53:45.706Z,17.20
2018-08-19T03:56:21.267Z,17.20
2018-08-19T03:58:52.676Z,17.10
2018-08-19T04:01:37.133Z,17.10
2018-08-19T04:04:07.749Z,17.00
2018-08-19T04:06:40.495Z,17.00
2018-08-19T04:09:11.040Z,17.00
2018-08-19T04:11:41.519Z,16.90
2018-08-19T04:14:29.139Z,16.80
2018-08-19T04:17:01.829Z,16.80
2018-08-19T04:19:32.306Z,16.80
2018-08-19T04:22:05.174Z,16.80
2018-08-19T04:24:36.230Z,16.80
2018-08-19T04:27:10.542Z,16.90
2018-08-19T04:29:41.321Z,16.90
2018-08-19T04:32:19.641Z,17.00
2018-08-19T04:34:50.321Z,17.00
2018-08-19T04:37:21.082Z,17.10
2018-08-19T04:39:51.735Z,17.10
2018-08-19T04:42:22.366Z,17.10
2018-08-19T04:44:52.958Z,17.10
2018-08-19T04:47:36.319Z,17.00
2018-08-19T04:50:06.713Z,17.00
2018-08-19T04:52:37.288Z,17.00
2018-08-19T04:55:07.915Z,16.90
2018-08-19T04:57:38.359Z,16.90
2018-08-19T05:00:09.072Z,16.90
2018-08-19T05:02:39.766Z,16.90
2018-08-19T05:05:10.196Z,17.00
2018-08-19T05:07:40.747Z,17.00
2018-08-19T05:10:11.493Z,17.10
2018-08-19T05:12:42.135Z,17.10
2018-08-19T05:15:12.576Z,17.20
2018-08-19T05:17:43.288Z,17.20
2018-08-19T05:20:16.616Z,17.20
2018-08-19T05:22:47.600Z,17.30
2018-08-19T05:25:18.345Z,17.40
2018-08-19T05:27:53.628Z,17.50
2018-08-19T05:30:24.268Z,17.60
2018-08-19T05:33:04.341Z,17.70
2018-08-19T05:35:36.017Z,17.80
2018-08-19T05:38:06.757Z,18.00
2018-08-19T05:40:39.341Z,18.30
2018-08-19T05:43:09.987Z,18.50
2018-08-19T05:45:44.904Z,18.80
2018-08-19T05:48:15.828Z,19.10
2018-08-19T05:50:46.308Z,19.40
2018-08-19T05:53:16.810Z,19.70
2018-08-19T05:55:47.453Z,20.00
2018-08-19T05:58:18.356Z,20.20
2018-08-19T06:00:53.656Z,20.40
2018-08-19T06:03:24.493Z,20.60
2018-08-19T06:05:55.239Z,20.70
2018-08-19T06:08:25.863Z,20.90
2018-08-19T06:10:56.598Z,21.20
2018-08-19T06:13:29.650Z,21.40
2018-08-19T06:16:00.715Z,21.70
2018-08-19T06:18:31.384Z,21.80
2018-08-19T06:21:02.073Z,22.00
2018-08-19T06:23:32.875Z,22.20
2018-08-19T06:26:03.496Z,22.50
2018-08-19T06:28:34.096Z,22.50
2018-08-19T06:31:04.795Z,22.80
2018-08-19T06:33:35.437Z,22.80
2018-08-19T06:36:06.096Z,23.10
2018-08-19T06:38:36.980Z,23.30
2018-08-19T06:41:07.741Z,23.50
2018-08-19T06:43:38.255Z,23.70
2018-08-19T06:46:09.080Z,23.80
2018-08-19T06:48:39.804Z,24.00
2018-08-19T06:51:10.464Z,24.20
2018-08-19T06:53:41.656Z,24.50
2018-08-19T06:56:12.207Z,24.70
2018-08-19T06:58:42.902Z,25.00
2018-08-19T07:01:13.755Z,25.20
2018-08-19T07:03:49.075Z,25.60
2018-08-19T07:06:19.394Z,25.70
2018-08-19T07:08:50.064Z,25.80
2018-08-19T07:11:20.795Z,25.90
2018-08-19T07:13:52.545Z,26.50
2018-08-19T07:16:23.582Z,26.50
2018-08-19T07:18:54.528Z,26.60
2018-08-19T07:21:25.413Z,27.20
2018-08-19T07:23:57.930Z,27.20
2018-08-19T07:26:28.653Z,27.70
2018-08-19T07:28:59.307Z,28.20
2018-08-19T07:31:31.800Z,28.40
2018-08-19T07:34:03.571Z,28.80
2018-08-19T07:36:34.150Z,29.10
2018-08-19T07:39:06.216Z,29.90
2018-08-19T07:41:37.474Z,29.90
2018-08-19T07:44:08.543Z,30.30
2018-08-19T07:46:40.234Z,30.60
2018-08-19T07:49:10.889Z,30.60
2018-08-19T07:51:41.624Z,30.20
2018-08-19T07:54:14.189Z,30.00
2018-08-19T07:56:46.083Z,30.30
2018-08-19T07:59:17.302Z,30.50
2018-08-19T08:01:48.448Z,30.50
2018-08-19T08:04:20.673Z,30.70
2018-08-19T08:06:51.940Z,30.80
2018-08-19T08:09:23.348Z,31.20
2018-08-19T08:11:54.156Z,31.60
2018-08-19T08:14:25.210Z,32.10
2018-08-19T08:16:56.742Z,32.50
2018-08-19T08:19:27.844Z,32.90
2018-08-19T08:22:05.189Z,33.20
2018-08-19T08:24:36.056Z,33.10
2018-08-19T08:27:08.534Z,32.90
2018-08-19T08:29:39.243Z,32.40
2018-08-19T08:32:10.643Z,32.10
2018-08-19T08:34:41.758Z,32.90
2018-08-19T08:37:14.101Z,33.60
2018-08-19T08:39:45.737Z,34.10
2018-08-19T08:42:16.444Z,34.50
2018-08-19T08:44:47.166Z,34.50
2018-08-19T08:47:18.035Z,34.50
2018-08-19T08:49:49.706Z,34.30
2018-08-19T08:52:24.353Z,34.20
2018-08-19T08:54:56.547Z,34.50
2018-08-19T08:57:27.780Z,34.80
2018-08-19T09:00:01.908Z,35.20
2018-08-19T09:02:32.746Z,35.40
2018-08-19T09:05:03.878Z,35.30
2018-08-19T09:07:35.544Z,35.80
2018-08-19T09:10:07.050Z,35.80
2018-08-19T09:12:56.695Z,35.90
2018-08-19T09:15:28.107Z,36.00
2018-08-19T09:17:59.626Z,36.30
2018-08-19T09:20:30.548Z,36.40
2018-08-19T09:23:01.643Z,36.20
2018-08-19T09:25:33.831Z,36.10
2018-08-19T09:28:13.564Z,36.10
2018-08-19T09:30:46.250Z,36.60
2018-08-19T09:33:20.703Z,36.40
2018-08-19T09:35:53.136Z,36.20
2018-08-19T09:38:26.279Z,36.10
2018-08-19T09:40:58.040Z,36.10
2018-08-19T09:43:30.389Z,36.50
2018-08-19T09:46:02.006Z,36.90
2018-08-19T09:48:33.053Z,36.50
2018-08-19T09:51:08.715Z,37.10
2018-08-19T09:53:39.986Z,36.60
2018-08-19T09:56:12.115Z,36.10
2018-08-19T09:58:47.308Z,35.80
2018-08-19T10:01:22.845Z,36.30
2018-08-19T10:03:54.441Z,36.80
2018-08-19T10:06:26.223Z,37.30
2018-08-19T10:08:57.138Z,37.80
2018-08-19T10:11:28.320Z,37.40
2018-08-19T10:14:04.102Z,37.40
2018-08-19T10:16:46.794Z,37.50
2018-08-19T10:19:20.129Z,37.40
2018-08-19T10:21:52.798Z,37.60
2018-08-19T10:24:30.864Z,37.50
2018-08-19T10:27:10.852Z,37.20
2018-08-19T10:29:56.386Z,36.40
2018-08-19T10:32:28.336Z,36.30
2018-08-19T10:35:17.780Z,36.60
2018-08-19T10:37:50.696Z,36.30
2018-08-19T10:40:23.563Z,35.90
2018-08-19T10:42:59.507Z,35.80
2018-08-19T10:45:36.965Z,35.80
2018-08-19T10:48:13.760Z,36.00
2018-08-19T10:50:49.978Z,36.20
2018-08-19T10:53:33.584Z,35.80
2018-08-19T10:56:09.139Z,35.70
2018-08-19T10:59:02.600Z,36.00
2018-08-19T11:01:34.468Z,35.70
2018-08-19T11:04:05.901Z,36.00
2018-08-19T11:06:36.817Z,36.10
2018-08-19T11:09:08.649Z,36.40
2018-08-19T11:11:39.268Z,36.60
2018-08-19T11:14:13.359Z,36.60
2018-08-19T11:16:44.220Z,37.10
2018-08-19T11:19:15.308Z,37.30
2018-08-19T11:21:46.760Z,37.10
2018-08-19T11:24:23.638Z,37.40
2018-08-19T11:27:04.515Z,37.50
2018-08-19T11:29:44.951Z,37.00
2018-08-19T11:32:30.320Z,37.00
2018-08-19T11:35:01.533Z,37.20
2018-08-19T11:37:33.003Z,37.40
2018-08-19T11:40:05.052Z,37.30
2018-08-19T11:42:35.989Z,37.70
2018-08-19T11:45:08.097Z,37.80
2018-08-19T11:47:39.025Z,37.70
2018-08-19T11:50:09.836Z,37.90
2018-08-19T11:52:41.268Z,37.50
2018-08-19T11:55:13.365Z,37.30
2018-08-19T11:57:45.297Z,37.50
2018-08-19T12:00:16.267Z,37.90
2018-08-19T12:02:47.997Z,38.40
2018-08-19T12:05:19.372Z,38.90
2018-08-19T12:07:54.252Z,39.40
2018-08-19T12:10:24.810Z,39.80
2018-08-19T12:12:55.848Z,38.70
2018-08-19T12:15:26.957Z,38.00
2018-08-19T12:17:58.138Z,37.80
2018-08-19T12:20:34.153Z,37.00
2018-08-19T12:23:06.157Z,36.90
2018-08-19T12:25:38.094Z,37.70
2018-08-19T12:28:09.138Z,37.80
2018-08-19T12:30:40.612Z,38.00
2018-08-19T12:33:26.481Z,38.40
2018-08-19T12:35:58.916Z,38.70
2018-08-19T12:38:31.349Z,38.60
2018-08-19T12:41:06.198Z,39.10
2018-08-19T12:43:37.282Z,38.30
2018-08-19T12:46:09.259Z,37.40
2018-08-19T12:48:40.321Z,36.60
2018-08-19T12:51:12.808Z,36.00
2018-08-19T12:53:43.258Z,35.50
2018-08-19T12:56:15.821Z,35.00
2018-08-19T12:58:47.536Z,34.60
2018-08-19T13:01:19.718Z,35.30
2018-08-19T13:03:50.491Z,36.30
2018-08-19T13:06:21.437Z,36.60
2018-08-19T13:08:52.341Z,36.30
2018-08-19T13:11:23.801Z,36.70
2018-08-19T13:13:54.639Z,37.00
2018-08-19T13:16:25.492Z,37.50
2018-08-19T13:18:57.045Z,37.80
2018-08-19T13:21:29.315Z,38.20
2018-08-19T13:24:00.841Z,37.80
2018-08-19T13:26:31.752Z,36.90
2018-08-19T13:29:04.760Z,36.10
2018-08-19T13:31:36.398Z,35.60
2018-08-19T13:34:07.692Z,35.20
2018-08-19T13:36:40.640Z,35.60
2018-08-19T13:39:14.221Z,35.90
2018-08-19T13:41:47.155Z,35.60
2018-08-19T13:44:18.213Z,35.50
2018-08-19T13:46:50.590Z,35.70
2018-08-19T13:49:25.343Z,35.80
2018-08-19T13:51:56.550Z,35.40
2018-08-19T13:54:27.438Z,35.40
2018-08-19T13:56:59.307Z,35.20
2018-08-19T13:59:30.649Z,35.20
2018-08-19T14:02:02.681Z,35.00
2018-08-19T14:04:33.511Z,35.00
2018-08-19T14:07:06.912Z,34.80
2018-08-19T14:09:37.973Z,33.70
2018-08-19T14:12:08.821Z,30.60
2018-08-19T14:14:39.673Z,28.30
2018-08-19T14:17:10.566Z,27.10
2018-08-19T14:19:42.544Z,26.40
2018-08-19T14:22:29.352Z,26.00
2018-08-19T14:25:06.975Z,25.20
2018-08-19T14:27:49.032Z,24.70
2018-08-19T14:30:35.357Z,24.80
2018-08-19T14:33:07.648Z,23.40
2018-08-19T14:35:46.648Z,23.70
2018-08-19T14:38:20.418Z,24.40
2018-08-19T14:40:52.338Z,25.50
2018-08-19T14:43:23.812Z,24.50
2018-08-19T14:45:55.639Z,23.60
2018-08-19T14:48:26.626Z,23.10
2018-08-19T14:50:57.929Z,22.60
2018-08-19T14:53:31.205Z,22.10
2018-08-19T14:56:16.892Z,21.20
2018-08-19T14:58:48.824Z,20.60
2018-08-19T15:01:20.219Z,20.30
2018-08-19T15:03:57.700Z,20.30
2018-08-19T15:06:29.589Z,20.30
2018-08-19T15:09:01.150Z,20.60
2018-08-19T15:11:32.860Z,20.70
2018-08-19T15:14:15.817Z,20.90
2018-08-19T15:16:52.542Z,21.00
2018-08-19T15:19:28.161Z,21.10
2018-08-19T15:22:01.486Z,21.20
2018-08-19T15:24:39.833Z,21.30
2018-08-19T15:27:14.928Z,21.30
2018-08-19T15:29:49.001Z,21.40
2018-08-19T15:32:22.684Z,21.30
2018-08-19T15:34:54.396Z,20.90
2018-08-19T15:37:25.114Z,21.00
2018-08-19T15:39:57.547Z,21.10
2018-08-19T15:42:29.369Z,21.30
2018-08-19T15:45:07.011Z,21.40
2018-08-19T15:47:39.357Z,21.40
2018-08-19T15:50:21.563Z,21.10
2018-08-19T15:52:53.326Z,21.10
2018-08-19T15:55:26.972Z,20.90
2018-08-19T15:58:04.176Z,20.90
2018-08-19T16:00:40.011Z,20.90
2018-08-19T16:03:14.512Z,20.90
2018-08-19T16:05:48.820Z,21.00
2018-08-19T16:08:20.447Z,21.10
2018-08-19T16:10:52.910Z,21.10
2018-08-19T16:13:30.971Z,20.90
2018-08-19T16:16:04.175Z,20.80
2018-08-19T16:18:37.418Z,20.80
2018-08-19T16:21:09.863Z,20.70
2018-08-19T16:23:42.656Z,20.70
2018-08-19T16:26:19.309Z,20.70
2018-08-19T16:28:53.123Z,20.70
2018-08-19T16:31:27.800Z,20.80
2018-08-19T16:34:01.055Z,20.80
2018-08-19T16:36:32.461Z,20.80
2018-08-19T16:39:05.473Z,20.90
2018-08-19T16:41:52.309Z,20.90
2018-08-19T16:44:25.198Z,21.00
2018-08-19T16:46:59.421Z,20.90
2018-08-19T16:49:33.312Z,20.80
2018-08-19T16:52:06.757Z,20.70
2018-08-19T16:54:39.000Z,20.70
2018-08-19T16:57:12.211Z,20.70
2018-08-19T16:59:44.586Z,20.60
2018-08-19T17:02:21.342Z,20.70
2018-08-19T17:04:53.834Z,20.70
2018-08-19T17:07:29.872Z,20.50
2018-08-19T17:10:04.146Z,20.50
2018-08-19T17:12:38.891Z,20.50
2018-08-19T17:15:14.101Z,20.50
2018-08-19T17:17:48.456Z,20.40
2018-08-19T17:20:20.561Z,20.40
2018-08-19T17:22:52.442Z,20.40
2018-08-19T17:25:25.945Z,20.40
2018-08-19T17:28:11.276Z,20.50
2018-08-19T17:30:43.137Z,20.50
2018-08-19T17:33:14.924Z,20.40
2018-08-19T17:35:49.572Z,20.50
2018-08-19T17:38:21.367Z,20.50
2018-08-19T17:40:53.130Z,20.50
2018-08-19T17:43:36.279Z,20.70
2018-08-19T17:46:13.370Z,20.70
2018-08-19T17:48:45.939Z,20.80
2018-08-19T17:51:32.118Z,20.80
2018-08-19T17:54:10.094Z,20.80
2018-08-19T17:56:42.177Z,20.90
2018-08-19T17:59:13.973Z,20.80
2018-08-19T18:01:45.948Z,20.80
2018-08-19T18:04:17.229Z,20.80
2018-08-19T18:06:48.310Z,20.80
2018-08-19T18:09:20.083Z,20.80
2018-08-19T18:11:55.551Z,20.70
2018-08-19T18:14:27.214Z,20.80
2018-08-19T18:17:01.018Z,20.70
2018-08-19T18:19:39.068Z,20.70
2018-08-19T18:22:15.617Z,20.70
2018-08-19T18:24:55.706Z,20.60
2018-08-19T18:27:31.792Z,20.60
2018-08-19T18:30:10.723Z,20.60
2018-08-19T18:32:44.726Z,20.60
2018-08-19T18:35:29.984Z,20.60
2018-08-19T18:38:08.312Z,20.60
2018-08-19T18:40:46.258Z,20.60
2018-08-19T18:43:20.807Z,20.60
2018-08-19T18:45:54.673Z,20.60
2018-08-19T18:48:33.295Z,20.50
2018-08-19T18:51:11.387Z,20.50
2018-08-19T18:53:45.206Z,20.50
2018-08-19T18:56:21.283Z,20.50
2018-08-19T18:58:57.931Z,20.60
2018-08-19T19:01:42.133Z,20.50
2018-08-19T19:04:17.708Z,20.50
2018-08-19T19:06:54.548Z,20.50
2018-08-19T19:09:42.823Z,20.40
2018-08-19T19:12:20.192Z,20.40
2018-08-19T19:14:52.730Z,20.40
2018-08-19T19:17:26.764Z,20.30
2018-08-19T19:20:01.507Z,20.30
2018-08-19T19:22:41.759Z,20.20
2018-08-19T19:25:14.613Z,20.20
2018-08-19T19:27:49.097Z,20.20
2018-08-19T19:30:22.969Z,20.20
2018-08-19T19:33:01.543Z,20.20
2018-08-19T19:35:36.946Z,20.10
2018-08-19T19:38:16.678Z,20.10
2018-08-19T19:41:06.322Z,20.00
2018-08-19T19:43:39.444Z,20.00
2018-08-19T19:46:15.453Z,20.00
2018-08-19T19:48:53.568Z,19.90
2018-08-19T19:51:30.657Z,19.90
2018-08-19T19:54:06.358Z,19.90
2018-08-19T19:56:49.706Z,19.90
2018-08-19T19:59:38.042Z,19.80
2018-08-19T20:02:30.339Z,19.80
2018-08-19T20:05:13.619Z,19.70
2018-08-19T20:07:54.760Z,19.60
2018-08-19T20:10:41.575Z,19.60
2018-08-19T20:13:23.298Z,19.60
2018-08-19T20:16:01.692Z,19.50
2018-08-19T20:18:40.965Z,19.50
2018-08-19T20:21:22.559Z,19.50
2018-08-19T20:24:02.793Z,19.50
2018-08-19T20:26:46.527Z,19.50
2018-08-19T20:29:21.791Z,19.50
2018-08-19T20:31:57.342Z,19.50
2018-08-19T20:34:34.746Z,19.60
2018-08-19T20:37:11.340Z,19.50
2018-08-19T20:39:43.882Z,19.50
2018-08-19T20:42:17.646Z,19.50
2018-08-19T20:44:56.245Z,19.50
2018-08-19T20:47:32.019Z,19.40
2018-08-19T20:50:11.281Z,19.40
2018-08-19T20:52:50.540Z,19.40
2018-08-19T20:55:24.199Z,19.40
2018-08-19T20:58:00.358Z,19.40
2018-08-19T21:00:32.908Z,19.40
2018-08-19T21:03:05.850Z,19.40
2018-08-19T21:05:39.367Z,19.30
2018-08-19T21:08:19.278Z,19.30
2018-08-19T21:10:51.354Z,19.30
2018-08-19T21:13:22.891Z,19.30
2018-08-19T21:15:56.274Z,19.20
2018-08-19T21:18:27.031Z,19.20
2018-08-19T21:20:58.153Z,19.20
2018-08-19T21:23:29.706Z,19.30
2018-08-19T21:26:01.597Z,19.20
2018-08-19T21:28:32.357Z,19.20
2018-08-19T21:31:04.720Z,19.20
2018-08-19T21:33:35.918Z,19.20
2018-08-19T21:36:06.845Z,19.20
2018-08-19T21:38:38.090Z,19.10
2018-08-19T21:41:08.853Z,19.10
2018-08-19T21:43:41.099Z,19.00
2018-08-19T21:46:11.929Z,19.10
2018-08-19T21:48:43.274Z,19.10
2018-08-19T21:51:14.179Z,19.00
2018-08-19T21:53:46.256Z,19.00
2018-08-19T21:56:17.010Z,19.00
2018-08-19T21:58:47.971Z,18.90
2018-08-19T22:01:23.073Z,18.90
2018-08-19T22:03:53.977Z,18.90
2018-08-19T22:06:24.624Z,18.80
2018-08-19T22:08:56.377Z,18.80
2018-08-19T22:11:27.662Z,18.80
2018-08-19T22:13:59.453Z,18.70
2018-08-19T22:16:30.287Z,18.70
2018-08-19T22:19:01.331Z,18.70
2018-08-19T22:21:32.152Z,18.60
2018-08-19T22:24:02.825Z,18.60
2018-08-19T22:26:33.631Z,18.60
2018-08-19T22:29:15.408Z,18.50
2018-08-19T22:31:46.156Z,18.50
2018-08-19T22:34:16.668Z,18.40
2018-08-19T22:36:47.349Z,18.40
2018-08-19T22:39:20.714Z,18.30
2018-08-19T22:41:52.610Z,18.30
2018-08-19T22:44:23.939Z,18.30
2018-08-19T22:46:54.617Z,18.30
2018-08-19T22:49:28.300Z,18.30
2018-08-19T22:52:24.828Z,18.30
2018-08-19T22:54:57.419Z,18.30
2018-08-19T22:57:28.844Z,18.20
2018-08-19T22:59:59.406Z,18.20
2018-08-19T23:02:30.747Z,18.20
2018-08-19T23:05:01.344Z,18.10
2018-08-19T23:07:31.892Z,18.10
2018-08-19T23:10:02.510Z,18.20
2018-08-19T23:12:33.175Z,18.10
2018-08-19T23:15:20.071Z,18.20
2018-08-19T23:17:51.281Z,18.20
2018-08-19T23:20:22.533Z,18.30
2018-08-19T23:22:52.978Z,18.20
2018-08-19T23:25:23.509Z,18.20
2018-08-19T23:27:54.052Z,18.20
2018-08-19T23:30:24.976Z,18.20
2018-08-19T23:32:55.567Z,18.10
2018-08-19T23:35:26.133Z,18.10
2018-08-19T23:37:56.729Z,18.10
2018-08-19T23:40:27.328Z,18.10
2018-08-19T23:42:58.313Z,18.10
2018-08-19T23:45:28.857Z,18.10
2018-08-19T23:48:00.102Z,18.10
2018-08-19T23:50:30.560Z,18.10
2018-08-19T23:53:01.113Z,18.10
2018-08-19T23:55:31.659Z,18.10
2018-08-19T23:58:03.018Z,18.10
